EKAH Airport Information

Runway Information
Runway 10L Length 9111 ft width 75 ft
Elevation 79 ft Threshold 0 ft Heading 100
Runway 28R Length 9111 ft Width 75 ft
Elevation 78 ft Threshold 0 ft Heading 280
Runway 10R Length 8865 ft width 148 ft
Elevation 81 ft Threshold 0 ft Heading 100
Runway 28L Length 8865 ft Width 148 ft
Elevation 75 ft Threshold 0 ft Heading 280
Airport Frequencies
Type APP Name APP Frequency 119.275 MHZ
Type MISC Name HANDLING Frequency 130.225 MHZ
Type MISC Name AIRPORT OF Frequency 130.225 MHZ
Type TWR Name TWR Frequency 118.525 MHZ
Airport Navaids
Type NDB Name Aarhus Frequency 324 KHZ
Type NDB Name Aarhus Frequency 374 KHZ
Airport Weather Information & NOTAM
ADDS - METARS form results

(2057 UTC 23 October 2018)
Data provider http://aviationweather.gov/metar/data/
 
METAR text: EKAH 232050Z AUTO 31016KT 9999NDV FEW044/// BKN210/// 10/05 Q1005
Conditions at: EKAH (TIRSTRUP (CIV/MI, DK) observed 2050 UTC 23 October 2018
Temperature: 10.0°C (50°F)
Dewpoint: 5.0°C (41°F) [RH = 71%]
Pressure (altimeter): 29.68 inches Hg (1005.0 mb)
Winds: from the NW (310 degrees) at 18 MPH (16 knots; 8.2 m/s)
Visibility: missing
Ceiling: 21000 feet AGL
Clouds: few clouds at 4400 feet AGL
broken clouds at 21000 feet AGL
Weather: no significant weather observed at this time

METAR text: EKAH 232020Z AUTO 30019KT 9999NDV FEW049/// BKN210/// 10/05 Q1004
Conditions at: EKAH (TIRSTRUP (CIV/MI, DK) observed 2020 UTC 23 October 2018
Temperature: 10.0°C (50°F)
Dewpoint: 5.0°C (41°F) [RH = 71%]
Pressure (altimeter): 29.65 inches Hg (1004.0 mb)
Winds: from the WNW (300 degrees) at 22 MPH (19 knots; 9.8 m/s)
Visibility: missing
Ceiling: 21000 feet AGL
Clouds: few clouds at 4900 feet AGL
broken clouds at 21000 feet AGL
Weather: no significant weather observed at this time

Forecast for: EKAH (TIRSTRUP (CIV/MI, DK)
Text: TAF EKAH 231702Z 2318/2418 29020G30KT 9999 SCT018
Forecast period: 1800 to 2200 UTC 23 October 2018
Forecast type: FROM: standard forecast or significant change
Winds: from the WNW (290 degrees) at 23 MPH (20 knots; 10.3 m/s)
gusting to 34 MPH (30 knots; 15.4 m/s)
Visibility: 6 or more miles 10+ km)
Ceiling: at least 12,000 feet AGL
Clouds: scattered clouds at 1800 feet AGL
Weather: no significant weather forecast for this period
Text: BECMG 2322/2324 31010KT
Forecast period: 2200 UTC 23 October 2018 to 1800 UTC 24 October 2018
Forecast type: BECOMING: Conditions expected to become as follows by 0000 UTC 24 October 2018
Winds: from the NW (310 degrees) at 12 MPH (10 knots; 5.1 m/s)
Visibility: 6 or more miles 10+ km)
Ceiling: at least 12,000 feet AGL
Clouds: scattered clouds at 1800 feet AGL
Weather: no significant weather forecast for this period